createdAt,value
2023-01-25T00:02:21.915Z,95985.69
2023-01-25T00:04:50.924Z,95980.09
2023-01-25T00:07:20.046Z,95980.78
2023-01-25T00:09:50.547Z,95982.25
2023-01-25T00:12:19.541Z,95980.13
2023-01-25T00:14:49.104Z,95984.38
2023-01-25T00:17:19.286Z,95982.41
2023-01-25T00:19:48.944Z,95984.84
2023-01-25T00:22:18.047Z,95981.72
2023-01-25T00:24:47.611Z,95979.44
2023-01-25T00:27:18.097Z,95980.13
2023-01-25T00:29:47.163Z,95979.63
2023-01-25T00:32:43.812Z,95987.28
2023-01-25T00:35:14.283Z,95980.25
2023-01-25T00:37:45.542Z,95979.13
2023-01-25T00:40:14.868Z,95982.22
2023-01-25T00:42:46.045Z,95974.69
2023-01-25T00:45:15.747Z,95984.22
2023-01-25T00:47:44.743Z,95973.72
2023-01-25T00:50:13.705Z,95970.59
2023-01-25T00:52:42.704Z,95970.59
2023-01-25T00:55:13.133Z,95969.31
2023-01-25T00:57:42.172Z,95972.09
2023-01-25T01:00:14.182Z,95969.28
2023-01-25T01:02:43.354Z,95973.00
2023-01-25T01:05:12.784Z,95979.41
2023-01-25T01:07:43.129Z,95977.31
2023-01-25T01:10:14.969Z,95968.50
2023-01-25T01:12:44.053Z,95963.41
2023-01-25T01:15:16.607Z,95966.66
2023-01-25T01:17:45.536Z,95962.91
2023-01-25T01:20:15.216Z,95968.34
2023-01-25T01:22:44.279Z,95958.84
2023-01-25T01:25:14.701Z,95953.78
2023-01-25T01:27:43.799Z,95961.75
2023-01-25T01:30:13.613Z,95962.28
2023-01-25T01:32:45.352Z,95966.53
2023-01-25T01:35:14.435Z,95959.31
2023-01-25T01:37:44.363Z,95962.91
2023-01-25T01:40:16.459Z,95961.44
2023-01-25T01:43:05.306Z,95960.38
2023-01-25T01:45:56.112Z,95959.09
2023-01-25T01:48:40.121Z,95963.84
2023-01-25T01:51:19.717Z,95949.41
2023-01-25T01:53:55.101Z,95952.91
2023-01-25T01:56:31.936Z,95946.69
2023-01-25T01:59:05.129Z,95951.59
2023-01-25T02:01:35.259Z,95945.06
2023-01-25T02:04:08.951Z,95948.13
2023-01-25T02:06:45.689Z,95949.28
2023-01-25T02:09:20.283Z,95950.66
2023-01-25T02:11:51.289Z,95958.03
2023-01-25T02:14:21.271Z,95953.78
2023-01-25T02:16:51.009Z,95959.00
2023-01-25T02:19:35.605Z,95962.28
2023-01-25T02:22:10.565Z,95959.66
2023-01-25T02:24:44.705Z,95956.72
2023-01-25T02:27:15.648Z,95959.00
2023-01-25T02:29:45.543Z,95959.00
2023-01-25T02:32:15.242Z,95949.47
2023-01-25T02:34:44.388Z,95950.69
2023-01-25T02:37:16.438Z,95946.09
2023-01-25T02:39:47.419Z,95948.41
2023-01-25T02:42:17.952Z,95948.56
2023-01-25T02:44:49.172Z,95939.66
2023-01-25T02:47:18.219Z,95932.00
2023-01-25T02:49:48.280Z,95936.72
2023-01-25T02:52:17.908Z,95930.50
2023-01-25T02:54:48.067Z,95932.34
2023-01-25T02:57:18.559Z,95936.72
2023-01-25T02:59:47.463Z,95942.97
2023-01-25T03:02:17.870Z,95932.34
2023-01-25T03:04:47.779Z,95938.41
2023-01-25T03:07:17.345Z,95931.78
2023-01-25T03:09:46.992Z,95929.50
2023-01-25T03:12:17.489Z,95930.00
2023-01-25T03:14:48.238Z,95940.13
2023-01-25T03:17:17.282Z,95943.59
2023-01-25T03:19:47.070Z,95941.94
2023-01-25T03:22:16.661Z,95943.28
2023-01-25T03:24:45.927Z,95948.66
2023-01-25T03:27:18.821Z,95943.44
2023-01-25T03:29:59.699Z,95943.63
2023-01-25T03:32:33.251Z,95937.69
2023-01-25T03:35:08.939Z,95942.59
2023-01-25T03:37:38.711Z,95942.63
2023-01-25T03:40:09.385Z,95938.66
2023-01-25T03:42:41.367Z,95932.25
2023-01-25T03:45:14.548Z,95940.13
2023-01-25T03:47:43.684Z,95937.38
2023-01-25T03:50:13.246Z,95929.19
2023-01-25T03:52:46.654Z,95933.94
2023-01-25T03:55:16.634Z,95930.31
2023-01-25T03:57:50.166Z,95933.72
2023-01-25T04:00:20.891Z,95927.69
2023-01-25T04:02:58.227Z,95928.72
2023-01-25T04:05:28.938Z,95931.94
2023-01-25T04:07:57.962Z,95930.97
2023-01-25T04:10:35.532Z,95924.16
2023-01-25T04:13:07.456Z,95923.47
2023-01-25T04:15:37.929Z,95929.84
2023-01-25T04:18:15.904Z,95925.97
2023-01-25T04:20:45.892Z,95926.63
2023-01-25T04:23:14.928Z,95922.06
2023-01-25T04:25:46.027Z,95924.31
2023-01-25T04:28:20.092Z,95924.66
2023-01-25T04:30:49.627Z,95922.97
2023-01-25T04:33:19.899Z,95927.94
2023-01-25T04:35:50.444Z,95928.09
2023-01-25T04:38:22.239Z,95924.44
2023-01-25T04:40:53.194Z,95923.88
2023-01-25T04:43:24.356Z,95922.25
2023-01-25T04:45:57.377Z,95925.25
2023-01-25T04:48:33.548Z,95928.91
2023-01-25T04:51:06.363Z,95929.81
2023-01-25T04:53:37.237Z,95924.81
2023-01-25T04:56:08.980Z,95922.75
2023-01-25T04:58:48.299Z,95928.00
2023-01-25T05:01:18.041Z,95934.88
2023-01-25T05:03:47.081Z,95926.63
2023-01-25T05:06:32.104Z,95922.59
2023-01-25T05:09:01.108Z,95931.13
2023-01-25T05:11:30.955Z,95926.41
2023-01-25T05:14:09.476Z,95932.56
2023-01-25T05:16:38.797Z,95929.63
2023-01-25T05:19:10.804Z,95928.50
2023-01-25T05:22:01.654Z,95926.41
2023-01-25T05:24:42.205Z,95926.94
2023-01-25T05:27:14.560Z,95931.19
2023-01-25T05:29:57.459Z,95928.50
2023-01-25T05:32:52.794Z,95935.22
2023-01-25T05:35:21.986Z,95933.59
2023-01-25T05:37:58.800Z,95937.22
2023-01-25T05:40:28.693Z,95926.50
2023-01-25T05:43:01.901Z,95934.31
2023-01-25T05:45:34.165Z,95925.94
2023-01-25T05:48:05.375Z,95939.41
2023-01-25T05:50:35.308Z,95933.03
2023-01-25T05:53:11.329Z,95938.41
2023-01-25T05:55:41.528Z,95933.78
2023-01-25T05:58:15.451Z,95942.81
2023-01-25T06:00:46.810Z,95936.19
2023-01-25T06:03:27.275Z,95937.88
2023-01-25T06:05:57.871Z,95940.16
2023-01-25T06:08:27.620Z,95937.28
2023-01-25T06:10:56.706Z,95949.00
2023-01-25T06:13:26.427Z,95945.56
2023-01-25T06:15:59.099Z,95947.06
2023-01-25T06:18:43.664Z,95949.69
2023-01-25T06:21:31.422Z,95949.59
2023-01-25T06:24:01.156Z,95949.47
2023-01-25T06:26:31.971Z,95938.56
2023-01-25T06:29:01.070Z,95938.16
2023-01-25T06:31:31.793Z,95933.84
2023-01-25T06:34:01.285Z,95929.31
2023-01-25T06:36:31.786Z,95931.13
2023-01-25T06:39:00.700Z,95937.31
2023-01-25T06:41:29.886Z,95926.34
2023-01-25T06:43:58.998Z,95936.72
2023-01-25T06:46:28.234Z,95933.59
2023-01-25T06:48:58.833Z,95930.88
2023-01-25T06:51:28.024Z,95928.34
2023-01-25T06:53:57.111Z,95933.28
2023-01-25T06:56:26.884Z,95936.03
2023-01-25T06:58:56.681Z,95937.00
2023-01-25T07:01:27.718Z,95933.03
2023-01-25T07:04:00.827Z,95935.72
2023-01-25T07:06:35.037Z,95929.41
2023-01-25T07:09:05.726Z,95930.22
2023-01-25T07:11:34.944Z,95923.88
2023-01-25T07:14:04.248Z,95923.91
2023-01-25T07:16:37.219Z,95926.38
2023-01-25T07:19:11.582Z,95936.38
2023-01-25T07:21:40.730Z,95943.81
2023-01-25T07:24:16.095Z,95941.56
2023-01-25T07:26:45.130Z,95948.91
2023-01-25T07:29:15.979Z,95953.56
2023-01-25T07:31:45.132Z,95949.53
2023-01-25T07:34:15.806Z,95948.78
2023-01-25T07:36:45.237Z,95953.72
2023-01-25T07:39:15.036Z,95957.34
2023-01-25T07:41:44.055Z,95957.25
2023-01-25T07:44:20.834Z,95957.03
2023-01-25T07:46:52.744Z,95956.34
2023-01-25T07:49:24.737Z,95953.25
2023-01-25T07:51:53.757Z,95958.22
2023-01-25T07:54:22.867Z,95960.66
2023-01-25T07:56:51.945Z,95955.88
2023-01-25T07:59:20.967Z,95950.81
2023-01-25T08:01:50.066Z,95955.72
2023-01-25T08:04:19.208Z,95959.44
2023-01-25T08:06:49.788Z,95950.34
2023-01-25T08:09:20.998Z,95937.75
2023-01-25T08:11:50.505Z,95940.03
2023-01-25T08:14:19.588Z,95937.59
2023-01-25T08:16:48.813Z,95939.41
2023-01-25T08:19:20.278Z,95938.16
2023-01-25T08:21:50.898Z,95942.91
2023-01-25T08:24:21.080Z,95940.97
2023-01-25T08:26:50.161Z,95942.13
2023-01-25T08:29:19.430Z,95934.78
2023-01-25T08:31:48.545Z,95934.50
2023-01-25T08:34:17.625Z,95940.06
2023-01-25T08:36:46.788Z,95945.28
2023-01-25T08:39:18.403Z,95954.41
2023-01-25T08:41:47.556Z,95950.00
2023-01-25T08:44:16.713Z,95951.81
2023-01-25T08:46:46.520Z,95944.94
2023-01-25T08:49:15.676Z,95949.22
2023-01-25T08:51:46.493Z,95955.72
2023-01-25T08:54:17.552Z,95958.03
2023-01-25T08:56:46.808Z,95945.94
2023-01-25T08:59:15.844Z,95953.13
2023-01-25T09:01:45.555Z,95935.81
2023-01-25T09:04:14.642Z,95940.06
2023-01-25T09:06:43.683Z,95938.91
2023-01-25T09:09:13.755Z,95941.84
2023-01-25T09:11:44.204Z,95938.91
2023-01-25T09:14:13.381Z,95938.56
2023-01-25T09:16:42.535Z,95947.75
2023-01-25T09:19:12.804Z,95935.78
2023-01-25T09:21:42.016Z,95929.59
2023-01-25T09:24:11.182Z,95933.19
2023-01-25T09:26:45.902Z,95919.91
2023-01-25T09:29:19.164Z,95916.78
2023-01-25T09:31:48.369Z,95921.53
2023-01-25T09:34:32.435Z,95915.16
2023-01-25T09:37:01.505Z,95911.53
2023-01-25T09:39:30.623Z,95912.19
2023-01-25T09:42:38.290Z,95916.34
2023-01-25T09:45:29.060Z,95902.06
2023-01-25T09:48:06.125Z,95903.06
2023-01-25T09:50:38.678Z,95901.09
2023-01-25T09:53:32.687Z,95890.50
2023-01-25T09:56:05.998Z,95888.28
2023-01-25T09:58:39.655Z,95891.50
2023-01-25T10:01:38.455Z,95883.75
2023-01-25T10:04:16.398Z,95878.09
2023-01-25T10:07:00.233Z,95878.25
2023-01-25T10:09:41.415Z,95873.47
2023-01-25T10:12:18.202Z,95862.13
2023-01-25T10:14:47.399Z,95856.56
2023-01-25T10:17:29.282Z,95851.63
2023-01-25T10:20:17.804Z,95854.53
2023-01-25T10:22:54.998Z,95860.38
2023-01-25T10:25:36.878Z,95837.84
2023-01-25T10:28:25.307Z,95844.34
2023-01-25T10:30:59.346Z,95839.88
2023-01-25T10:33:34.901Z,95830.22
2023-01-25T10:36:06.983Z,95834.19
2023-01-25T10:38:43.236Z,95833.00
2023-01-25T10:41:20.123Z,95827.31
2023-01-25T10:44:09.263Z,95813.72
2023-01-25T10:46:40.073Z,95816.72
2023-01-25T10:49:24.890Z,95808.22
2023-01-25T10:51:53.907Z,95803.91
2023-01-25T10:54:24.792Z,95806.25
2023-01-25T10:56:55.172Z,95793.09
2023-01-25T10:59:27.189Z,95798.59
2023-01-25T11:01:57.590Z,95802.69
2023-01-25T11:04:34.288Z,95797.69
2023-01-25T11:07:05.298Z,95793.97
2023-01-25T11:09:40.089Z,95789.38
2023-01-25T11:12:27.037Z,95781.75
2023-01-25T11:14:55.989Z,95773.91
2023-01-25T11:17:32.113Z,95773.84
2023-01-25T11:20:18.746Z,95782.19
2023-01-25T11:22:53.105Z,95778.97
2023-01-25T11:25:34.535Z,95771.78
2023-01-25T11:28:17.864Z,95776.41
2023-01-25T11:30:47.288Z,95773.13
2023-01-25T11:33:19.441Z,95770.28
2023-01-25T11:36:12.215Z,95761.84
2023-01-25T11:38:52.179Z,95755.88
2023-01-25T11:41:30.521Z,95754.97
2023-01-25T11:44:15.132Z,95759.91
2023-01-25T11:47:00.096Z,95761.88
2023-01-25T11:49:52.320Z,95752.91
2023-01-25T11:52:35.536Z,95750.38
2023-01-25T11:55:16.175Z,95749.19
2023-01-25T11:57:57.184Z,95741.06
2023-01-25T12:00:48.690Z,95739.25
2023-01-25T12:03:37.274Z,95727.13
2023-01-25T12:06:15.171Z,95723.81
2023-01-25T12:09:09.398Z,95721.41
2023-01-25T12:11:59.790Z,95719.53
2023-01-25T12:14:42.248Z,95715.41
2023-01-25T12:17:26.917Z,95711.31
2023-01-25T12:20:12.517Z,95708.94
2023-01-25T12:22:57.076Z,95707.06
2023-01-25T12:25:37.356Z,95696.69
2023-01-25T12:28:15.585Z,95701.03
2023-01-25T12:30:52.908Z,95695.72
2023-01-25T12:33:26.893Z,95692.63
2023-01-25T12:36:02.859Z,95686.81
2023-01-25T12:38:37.269Z,95685.72
2023-01-25T12:41:15.732Z,95684.59
2023-01-25T12:43:49.886Z,95679.88
2023-01-25T12:46:32.673Z,95681.16
2023-01-25T12:49:07.872Z,95675.34
2023-01-25T12:51:41.946Z,95669.97
2023-01-25T12:54:19.199Z,95666.50
2023-01-25T12:56:58.708Z,95670.78
2023-01-25T12:59:36.331Z,95672.19
2023-01-25T13:02:24.565Z,95667.91
2023-01-25T13:05:03.687Z,95665.00
2023-01-25T13:07:40.571Z,95661.13
2023-01-25T13:10:18.693Z,95658.94
2023-01-25T13:12:56.679Z,95659.66
2023-01-25T13:15:42.679Z,95651.50
2023-01-25T13:18:42.355Z,95657.44
2023-01-25T13:21:41.825Z,95652.00
2023-01-25T13:24:22.347Z,95642.31
2023-01-25T13:27:26.028Z,95649.75
2023-01-25T13:30:04.503Z,95647.78
2023-01-25T13:32:58.094Z,95647.84
2023-01-25T13:35:29.911Z,95647.56
2023-01-25T13:38:01.298Z,95642.09
2023-01-25T13:40:34.573Z,95644.03
2023-01-25T13:43:04.118Z,95649.09
2023-01-25T13:45:37.624Z,95643.59
2023-01-25T13:48:16.935Z,95654.44
2023-01-25T13:50:50.342Z,95649.06
2023-01-25T13:53:21.893Z,95656.41
2023-01-25T13:55:53.515Z,95658.44
2023-01-25T13:58:25.803Z,95649.13
2023-01-25T14:00:58.717Z,95650.50
2023-01-25T14:03:31.427Z,95657.03
2023-01-25T14:06:02.760Z,95648.69
2023-01-25T14:08:32.672Z,95648.81
2023-01-25T14:11:02.009Z,95648.09
2023-01-25T14:13:31.141Z,95655.75
2023-01-25T14:16:04.605Z,95650.44
2023-01-25T14:18:38.163Z,95649.53
2023-01-25T14:21:19.856Z,95646.31
2023-01-25T14:23:50.018Z,95650.03
2023-01-25T14:26:22.592Z,95654.53
2023-01-25T14:29:01.336Z,95649.00
2023-01-25T14:31:36.609Z,95652.16
2023-01-25T14:34:06.436Z,95644.50
2023-01-25T14:36:36.425Z,95641.09
2023-01-25T14:39:18.414Z,95639.72
2023-01-25T14:42:01.046Z,95638.69
2023-01-25T14:44:31.283Z,95641.09
2023-01-25T14:47:33.939Z,95630.25
2023-01-25T14:50:33.011Z,95639.44
2023-01-25T14:53:10.191Z,95635.69
2023-01-25T14:55:39.516Z,95636.69
2023-01-25T14:58:12.889Z,95638.47
2023-01-25T15:00:44.253Z,95646.06
2023-01-25T15:03:18.332Z,95644.56
2023-01-25T15:05:49.174Z,95641.03
2023-01-25T15:08:29.899Z,95657.53
2023-01-25T15:11:32.128Z,95655.56
2023-01-25T15:14:04.842Z,95659.31
2023-01-25T15:16:37.397Z,95656.25
2023-01-25T15:19:23.147Z,95665.88
2023-01-25T15:21:52.227Z,95668.78
2023-01-25T15:24:22.663Z,95672.03
2023-01-25T15:26:53.654Z,95666.16
2023-01-25T15:29:25.995Z,95665.84
2023-01-25T15:31:57.074Z,95655.75
2023-01-25T15:34:30.498Z,95664.69
2023-01-25T15:36:59.567Z,95670.38
2023-01-25T15:39:29.112Z,95668.63
2023-01-25T15:41:58.747Z,95663.72
2023-01-25T15:44:28.004Z,95679.41
2023-01-25T15:46:57.383Z,95678.44
2023-01-25T15:49:31.776Z,95676.50
2023-01-25T15:52:00.868Z,95659.22
2023-01-25T15:54:30.851Z,95677.16
2023-01-25T15:57:01.661Z,95677.34
2023-01-25T15:59:31.012Z,95671.81
2023-01-25T16:02:00.290Z,95670.19
2023-01-25T16:04:30.829Z,95680.44
2023-01-25T16:07:01.253Z,95676.38
2023-01-25T16:09:33.554Z,95676.22
2023-01-25T16:12:03.300Z,95660.22
2023-01-25T16:14:32.968Z,95667.22
2023-01-25T16:17:04.402Z,95663.47
2023-01-25T16:19:35.824Z,95668.31
2023-01-25T16:22:04.870Z,95662.13
2023-01-25T16:24:34.021Z,95656.25
2023-01-25T16:27:03.910Z,95653.09
2023-01-25T16:29:33.050Z,95667.00
2023-01-25T16:32:02.792Z,95661.63
2023-01-25T16:34:32.009Z,95665.88
2023-01-25T16:37:03.426Z,95674.19
2023-01-25T16:39:33.673Z,95673.09
2023-01-25T16:42:02.696Z,95666.13
2023-01-25T16:44:31.650Z,95673.59
2023-01-25T16:47:01.397Z,95668.22
2023-01-25T16:49:30.856Z,95681.47
2023-01-25T16:52:00.839Z,95673.00
2023-01-25T16:54:31.679Z,95674.44
2023-01-25T16:57:08.697Z,95663.50
2023-01-25T16:59:48.087Z,95658.63
2023-01-25T17:02:17.278Z,95662.34
2023-01-25T17:04:46.413Z,95670.69
2023-01-25T17:07:15.609Z,95660.38
2023-01-25T17:09:46.041Z,95662.16
2023-01-25T17:12:15.144Z,95661.72
2023-01-25T17:14:44.342Z,95653.50
2023-01-25T17:17:13.531Z,95663.16
2023-01-25T17:19:42.809Z,95648.44
2023-01-25T17:22:12.095Z,95657.47
2023-01-25T17:24:41.709Z,95659.75
2023-01-25T17:27:12.103Z,95660.53
2023-01-25T17:29:41.394Z,95662.50
2023-01-25T17:32:11.390Z,95657.91
2023-01-25T17:34:40.731Z,95661.53
2023-01-25T17:37:09.858Z,95654.97
2023-01-25T17:39:39.173Z,95653.53
2023-01-25T17:42:11.647Z,95652.06
2023-01-25T17:44:42.246Z,95650.56
2023-01-25T17:47:11.320Z,95653.84
2023-01-25T17:49:40.471Z,95656.81
2023-01-25T17:52:09.544Z,95656.47
2023-01-25T17:54:40.435Z,95651.25
2023-01-25T17:57:10.687Z,95641.13
2023-01-25T17:59:39.767Z,95637.41
2023-01-25T18:02:23.768Z,95636.72
2023-01-25T18:04:53.162Z,95646.22
2023-01-25T18:07:22.351Z,95637.75
2023-01-25T18:09:52.101Z,95635.75
2023-01-25T18:12:21.185Z,95633.97
2023-01-25T18:14:50.288Z,95634.47
2023-01-25T18:17:21.068Z,95621.44
2023-01-25T18:19:50.473Z,95624.69
2023-01-25T18:22:19.650Z,95619.28
2023-01-25T18:24:49.037Z,95621.59
2023-01-25T18:27:21.282Z,95616.34
2023-01-25T18:29:56.773Z,95628.09
2023-01-25T18:32:27.335Z,95627.28
2023-01-25T18:34:56.477Z,95616.22
2023-01-25T18:37:29.638Z,95621.91
2023-01-25T18:39:58.877Z,95626.97
2023-01-25T18:42:28.529Z,95624.50
2023-01-25T18:44:57.818Z,95626.13
2023-01-25T18:47:29.529Z,95639.34
2023-01-25T18:49:58.817Z,95629.91
2023-01-25T18:52:28.005Z,95632.84
2023-01-25T18:54:57.777Z,95635.44
2023-01-25T18:57:26.789Z,95640.81
2023-01-25T18:59:59.579Z,95637.09
2023-01-25T19:02:30.539Z,95637.91
2023-01-25T19:05:01.533Z,95635.28
2023-01-25T19:07:32.252Z,95623.06
2023-01-25T19:10:01.248Z,95618.00
2023-01-25T19:12:31.912Z,95612.78
2023-01-25T19:15:01.755Z,95603.47
2023-01-25T19:17:35.288Z,95602.97
2023-01-25T19:20:05.630Z,95613.75
2023-01-25T19:22:34.722Z,95619.63
2023-01-25T19:25:04.429Z,95614.72
2023-01-25T19:27:33.529Z,95615.56
2023-01-25T19:30:02.820Z,95617.19
2023-01-25T19:32:35.148Z,95609.19
2023-01-25T19:35:06.618Z,95606.72
2023-01-25T19:37:35.731Z,95607.38
2023-01-25T19:40:05.258Z,95595.16
2023-01-25T19:42:34.520Z,95594.81
2023-01-25T19:45:03.591Z,95600.06
2023-01-25T19:47:38.788Z,95591.56
2023-01-25T19:50:09.247Z,95601.81
2023-01-25T19:52:39.089Z,95609.50
2023-01-25T19:55:09.592Z,95602.03
2023-01-25T19:57:39.152Z,95598.75
2023-01-25T20:00:10.484Z,95595.47
2023-01-25T20:02:42.697Z,95600.22
2023-01-25T20:05:12.096Z,95605.28
2023-01-25T20:07:42.424Z,95594.81
2023-01-25T20:10:13.058Z,95582.75
2023-01-25T20:12:42.105Z,95578.00
2023-01-25T20:15:14.661Z,95587.31
2023-01-25T20:17:45.441Z,95588.94
2023-01-25T20:20:14.514Z,95579.31
2023-01-25T20:22:43.690Z,95581.13
2023-01-25T20:25:12.792Z,95569.19
2023-01-25T20:27:41.922Z,95561.53
2023-01-25T20:30:12.116Z,95560.41
2023-01-25T20:32:41.760Z,95559.91
2023-01-25T20:35:12.933Z,95556.16
2023-01-25T20:37:42.693Z,95555.00
2023-01-25T20:40:13.035Z,95544.69
2023-01-25T20:42:42.136Z,95534.28
2023-01-25T20:45:17.182Z,95531.84
2023-01-25T20:47:46.494Z,95529.88
2023-01-25T20:50:17.583Z,95523.53
2023-01-25T20:52:47.305Z,95537.75
2023-01-25T20:55:16.389Z,95529.13
2023-01-25T20:57:46.860Z,95532.38
2023-01-25T21:00:17.318Z,95527.50
2023-01-25T21:02:47.545Z,95525.22
2023-01-25T21:05:18.823Z,95525.06
2023-01-25T21:07:47.972Z,95516.56
2023-01-25T21:10:17.911Z,95516.72
2023-01-25T21:12:47.116Z,95522.59
2023-01-25T21:15:17.961Z,95512.16
2023-01-25T21:17:52.319Z,95508.09
2023-01-25T21:20:23.042Z,95501.41
2023-01-25T21:22:52.116Z,95481.34
2023-01-25T21:25:21.630Z,95478.38
2023-01-25T21:27:50.750Z,95482.34
2023-01-25T21:30:23.000Z,95474.84
2023-01-25T21:32:52.228Z,95480.03
2023-01-25T21:35:22.836Z,95476.16
2023-01-25T21:37:52.472Z,95474.19
2023-01-25T21:40:22.185Z,95482.19
2023-01-25T21:42:51.348Z,95477.47
2023-01-25T21:45:37.696Z,95477.09
2023-01-25T21:48:07.387Z,95465.69
2023-01-25T21:50:56.053Z,95460.53
2023-01-25T21:53:25.128Z,95460.53
2023-01-25T21:55:57.770Z,95457.56
2023-01-25T21:58:26.771Z,95452.50
2023-01-25T22:00:55.896Z,95455.28
2023-01-25T22:03:25.048Z,95446.66
2023-01-25T22:05:57.306Z,95453.97
2023-01-25T22:08:26.326Z,95447.97
2023-01-25T22:11:02.987Z,95443.22
2023-01-25T22:13:32.505Z,95440.16
2023-01-25T22:16:02.535Z,95438.34
2023-01-25T22:18:37.003Z,95450.06
2023-01-25T22:21:09.398Z,95443.72
2023-01-25T22:23:38.446Z,95443.06
2023-01-25T22:26:09.386Z,95431.00
2023-01-25T22:28:46.573Z,95425.78
2023-01-25T22:31:16.174Z,95422.56
2023-01-25T22:33:45.839Z,95426.94
2023-01-25T22:36:17.612Z,95422.22
2023-01-25T22:38:47.258Z,95420.94
2023-01-25T22:41:17.704Z,95409.53
2023-01-25T22:43:46.994Z,95407.38
2023-01-25T22:46:18.179Z,95384.28
2023-01-25T22:48:47.921Z,95383.59
2023-01-25T22:51:20.353Z,95397.31
2023-01-25T22:53:49.535Z,95404.94
2023-01-25T22:56:19.947Z,95398.25
2023-01-25T22:58:49.210Z,95393.69
2023-01-25T23:01:21.897Z,95389.31
2023-01-25T23:03:52.048Z,95386.06
2023-01-25T23:06:25.946Z,95381.31
2023-01-25T23:08:56.842Z,95370.59
2023-01-25T23:11:32.816Z,95364.09
2023-01-25T23:14:19.192Z,95367.81
2023-01-25T23:16:49.007Z,95355.13
2023-01-25T23:19:20.108Z,95359.81
2023-01-25T23:21:50.596Z,95347.31
2023-01-25T23:24:19.730Z,95345.84
2023-01-25T23:26:49.903Z,95356.28
2023-01-25T23:29:18.978Z,95344.06
2023-01-25T23:31:48.133Z,95339.66
2023-01-25T23:34:17.722Z,95344.06
2023-01-25T23:36:47.369Z,95332.19
2023-01-25T23:39:18.504Z,95324.38
2023-01-25T23:41:49.282Z,95314.75
2023-01-25T23:44:18.862Z,95324.38
2023-01-25T23:46:48.614Z,95333.47
2023-01-25T23:49:18.243Z,95340.00
2023-01-25T23:51:47.921Z,95334.59
2023-01-25T23:54:18.873Z,95330.06
2023-01-25T23:56:47.912Z,95324.81
2023-01-25T23:59:17.500Z,95325.84
